Flight Track Log - Related Links

Times and Time Zones

All times are in EDT time to prevent confusion due to time zone crossing. See the PDT4129 flight status page for this flight to view local times or setup timezone preferences in your user account.

Time Position Orientation Groundspeed Altitude Reporting Facility
EDT Latitude Longitude Course Direction KTS MPH feet Rate Location/Type
Sun 07:01:02 AM 35.6361 -77.3453 287° West 27 31 12,000  Level Washington Center
Sun 07:02:02 AM 35.7211 -77.3856 339° North 109 125 2,100 -2,715 Descending Washington Center
Sun 07:03:00 AM 35.6667 -77.5835 281° West  Level FlightAware Approximate
Sun 07:04:00 AM 35.6793 -77.6466 284° West  Level FlightAware Approximate
Sun 07:04:01 AM 35.7358 -77.5086 278° West 256 295 3,900  Level Washington Center
Sun 07:05:00 AM 35.6833 -77.7133 270° West  Level FlightAware Approximate
Sun 07:05:02 AM 35.7433 -77.5703 279° West 221 254 4,900  Level Washington Center
Sun 07:06:00 AM 35.6986 -77.7778 287° West  Level FlightAware Approximate
Sun 07:06:01 AM 35.7486 -77.6317 276° West 195 224 5,900  Level Washington Center
Sun 07:07:00 AM 35.7147 -77.8422 287° West  Level FlightAware Approximate
Sun 07:07:02 AM 35.7536 -77.6958 276° West 190 219 6,800  Level Washington Center
Sun 07:08:01 AM 35.7631 -77.7575 281° West 190 219 7,800 850 Climbing Washington Center
Sun 07:09:02 AM 35.7681 -77.8167 276° West 185 213 8,500 744 Climbing Washington Center
Sun 07:10:02 AM 35.7753 -77.8808 278° West 180 207 9,300 712 Climbing Washington Center
Sun 07:11:00 AM 35.7844 -77.9425 280° West 180 207 9,900 305 Climbing Washington Center
Sun 07:12:00 AM 35.7914 -78.0144 277° West 193 222 9,900 50 Level Washington Center
Sun 07:12:59 AM 35.7981 -78.0992 276° West 242 278 10,000 50 Climbing Washington Center
Sun 07:14:00 AM 35.8067 -78.1839 277° West 244 281 10,000  Level Washington Center
Sun 07:15:02 AM 35.8175 -78.2586 280° West 243 280 10,000  Level Washington Center
Sun 07:16:00 AM 35.8114 -78.3531 265° West 246 283 10,000  Level Washington Center
Sun 07:17:02 AM 35.8181 -78.4250 277° West 243 280 10,000  Level Washington Center
Sun 07:17:59 AM 35.8181 -78.5097 270° West 248 285 10,000  Level Washington Center
Sun 07:19:00 AM 35.8158 -78.5942 268° West 253 291 10,000  Level Washington Center
Sun 07:19:59 AM 35.8114 -78.6861 267° West 247 284 10,000  Level Washington Center
Sun 07:21:05 AM 35.8092 -78.7783 268° West 251 289 10,000  Level Washington Center
Sun 07:22:05 AM 35.8131 -78.8628 273° West 249 287 10,000  Level Washington Center
Sun 07:23:00 AM 35.8150 -78.9425 272° West 242 278 10,000  Level Washington Center
Sun 07:24:01 AM 35.8128 -79.0217 268° West 238 274 10,000  Level Washington Center
Sun 07:25:00 AM 35.8144 -79.1036 271° West 237 273 10,000 -108 Level Washington Center
Sun 07:26:00 AM 35.8150 -79.1809 271° West  Level FlightAware Approximate
Sun 07:33:00 AM 35.8004 -79.7222 270° West  Level FlightAware Approximate
Sun 07:34:00 AM 35.8005 -79.7994 270° West  Level FlightAware Approximate
Sun 07:35:00 AM 35.8006 -79.8767 270° West  Level FlightAware Approximate
Sun 07:36:00 AM 35.8007 -79.9539 270° West  Level FlightAware Approximate
Sun 07:37:00 AM 35.8007 -80.0312 270° West  Level FlightAware Approximate
Sun 07:37:55 AM 35.7719 -80.0997 211° Southwest 243 280 8,500  Level Atlanta Center
Sun 07:38:00 AM 35.8007 -80.1084 270° West  Level FlightAware Approximate
Sun 07:38:38 AM 35.7653 -80.1564 262° West 243 280 7,800  Level Atlanta Center
Sun 07:39:00 AM 35.8006 -80.1857 270° West  Level FlightAware Approximate
Sun 07:39:38 AM 35.7597 -80.2436 266° West 246 283 6,700  Level Atlanta Center
Sun 07:40:00 AM 35.8004 -80.2629 270° West  Level FlightAware Approximate
Sun 07:40:39 AM 35.7539 -80.3283 265° West 252 290 6,000  Level Atlanta Center
Sun 07:41:00 AM 35.8002 -80.3402 270° West  Level FlightAware Approximate
Sun 07:41:40 AM 35.7481 -80.4131 265° West 247 284 6,000  Level Atlanta Center
Sun 07:42:00 AM 35.8000 -80.4174 270° West  Level FlightAware Approximate
Sun 07:42:41 AM 35.7358 -80.4956 260° West 241 277 6,000  Level Atlanta Center
Sun 07:43:00 AM 35.7603 -80.4632 211° Southwest  Level FlightAware Approximate
Sun 07:43:42 AM 35.7067 -80.5633 242° Southwest 237 273 6,000  Level Atlanta Center
Sun 07:44:43 AM 35.6775 -80.6411 245° Southwest 236 272 6,000  Level Atlanta Center
Sun 07:45:44 AM 35.6525 -80.7164 248° West 237 273 6,000 -148 Level Atlanta Center
Sun 07:46:45 AM 35.6294 -80.7914 249° West 234 269 5,700 -639 Descending Atlanta Center
Sun 07:47:46 AM 35.6064 -80.8639 249° West 234 269 4,700 -836 Descending Atlanta Center
Sun 07:48:47 AM 35.5769 -80.9442 246° West 235 270 4,000 -344 Descending Atlanta Center
Sun 07:49:48 AM 35.5214 -80.9742 204° Southwest 213 245 4,000  Level Atlanta Center
Sun 07:50:49 AM 35.4653 -80.9764 182° South 192 221 4,000  Level Atlanta Center
Sun 07:51:50 AM 35.4233 -80.9753 179° South 139 160 4,000 -148 Level Atlanta Center
Sun 07:52:51 AM 35.3794 -80.9694 174° South 141 162 3,700 -541 Descending Atlanta Center
Sun 07:53:52 AM 35.3375 -80.9658 176° South 153 176 2,900 -787 Descending Atlanta Center

Login

Don't have an account? Register now (free) for customized features, flight alerts, and more!